createdAt,value
2017-12-30T00:00:57.111Z,99226.44
2017-12-30T00:03:29.580Z,99223.75
2017-12-30T00:06:02.202Z,99225.79
2017-12-30T00:08:34.693Z,99225.53
2017-12-30T00:11:07.195Z,99232.84
2017-12-30T00:13:39.713Z,99240.55
2017-12-30T00:16:12.864Z,99236.33
2017-12-30T00:18:45.359Z,99237.94
2017-12-30T00:21:17.873Z,99227.84
2017-12-30T00:23:50.442Z,99239.45
2017-12-30T00:26:22.978Z,99239.87
2017-12-30T00:28:55.545Z,99234.24
2017-12-30T00:31:28.077Z,99239.80
2017-12-30T00:34:00.648Z,99241.14
2017-12-30T00:36:33.194Z,99227.73
2017-12-30T00:39:05.745Z,99233.66
2017-12-30T00:41:38.268Z,99226.66
2017-12-30T00:44:11.041Z,99226.51
2017-12-30T00:46:43.588Z,99229.97
2017-12-30T00:49:16.112Z,99226.73
2017-12-30T00:51:48.648Z,99223.36
2017-12-30T00:54:21.173Z,99228.50
2017-12-30T00:56:53.717Z,99230.69
2017-12-30T00:59:26.244Z,99236.86
2017-12-30T01:01:58.849Z,99239.81
2017-12-30T01:04:31.354Z,99246.83
2017-12-30T01:07:03.846Z,99241.98
2017-12-30T01:09:36.320Z,99251.20
2017-12-30T01:12:08.795Z,99240.45
2017-12-30T01:14:41.955Z,99242.58
2017-12-30T01:17:14.435Z,99244.20
2017-12-30T01:19:46.926Z,99243.33
2017-12-30T01:22:20.432Z,99242.47
2017-12-30T01:24:52.920Z,99239.02
2017-12-30T01:27:25.403Z,99246.48
2017-12-30T01:29:57.910Z,99231.25
2017-12-30T01:32:31.349Z,99239.59
2017-12-30T01:35:03.838Z,99229.61
2017-12-30T01:37:36.322Z,99234.13
2017-12-30T01:40:08.875Z,99220.33
2017-12-30T01:42:41.898Z,99225.68
2017-12-30T01:45:14.379Z,99222.41
2017-12-30T01:47:46.955Z,99214.33
2017-12-30T01:50:19.508Z,99206.23
2017-12-30T01:52:51.987Z,99208.34
2017-12-30T01:55:24.533Z,99208.82
2017-12-30T01:57:57.064Z,99214.52
2017-12-30T02:00:29.548Z,99207.41
2017-12-30T02:03:02.030Z,99200.78
2017-12-30T02:05:34.586Z,99204.26
2017-12-30T02:08:07.065Z,99215.28
2017-12-30T02:10:39.541Z,99203.72
2017-12-30T02:13:12.021Z,99203.14
2017-12-30T02:15:45.291Z,99195.09
2017-12-30T02:18:17.797Z,99199.03
2017-12-30T02:20:50.273Z,99202.20
2017-12-30T02:23:22.741Z,99200.31
2017-12-30T02:25:55.215Z,99210.48
2017-12-30T02:28:27.695Z,99203.91
2017-12-30T02:31:00.169Z,99199.17
2017-12-30T02:33:32.669Z,99193.08
2017-12-30T02:36:05.144Z,99196.30
2017-12-30T02:38:37.616Z,99199.55
2017-12-30T02:41:10.101Z,99184.84
2017-12-30T02:43:43.419Z,99172.28
2017-12-30T02:46:15.919Z,99179.71
2017-12-30T02:48:48.480Z,99183.64
2017-12-30T02:51:20.976Z,99176.16
2017-12-30T02:53:53.456Z,99178.37
2017-12-30T02:56:25.940Z,99169.22
2017-12-30T02:58:58.429Z,99174.94
2017-12-30T03:01:30.939Z,99180.33
2017-12-30T03:04:03.414Z,99169.69
2017-12-30T03:06:35.929Z,99171.41
2017-12-30T03:09:08.422Z,99170.96
2017-12-30T03:11:41.150Z,99167.94
2017-12-30T03:14:13.626Z,99160.59
2017-12-30T03:16:46.195Z,99161.02
2017-12-30T03:19:18.682Z,99151.08
2017-12-30T03:21:51.163Z,99145.52
2017-12-30T03:24:23.652Z,99143.44
2017-12-30T03:26:56.139Z,99150.70
2017-12-30T03:29:28.655Z,99144.67
2017-12-30T03:32:01.144Z,99138.38
2017-12-30T03:34:33.658Z,99132.80
2017-12-30T03:37:06.137Z,99140.83
2017-12-30T03:39:38.619Z,99136.48
2017-12-30T03:42:11.116Z,99140.09
2017-12-30T03:44:43.609Z,99151.47
2017-12-30T03:47:16.114Z,99149.27
2017-12-30T03:49:48.589Z,99140.65
2017-12-30T03:52:21.065Z,99141.05
2017-12-30T03:54:53.546Z,99141.34
2017-12-30T03:57:26.038Z,99138.20
2017-12-30T03:59:58.551Z,99145.91
2017-12-30T04:02:31.064Z,99135.16
2017-12-30T04:05:03.569Z,99135.17
2017-12-30T04:07:36.062Z,99139.02
2017-12-30T04:10:08.576Z,99146.29
2017-12-30T04:12:41.061Z,99143.94
2017-12-30T04:15:13.566Z,99140.19
2017-12-30T04:17:46.047Z,99151.23
2017-12-30T04:20:18.542Z,99143.00
2017-12-30T04:22:51.045Z,99145.41
2017-12-30T04:25:23.536Z,99142.92
2017-12-30T04:27:56.018Z,99152.27
2017-12-30T04:30:28.516Z,99153.03
2017-12-30T04:33:01.014Z,99149.68
2017-12-30T04:35:33.512Z,99159.67
2017-12-30T04:38:06.015Z,99157.39
2017-12-30T04:40:38.499Z,99159.11
2017-12-30T04:43:11.098Z,99155.20
2017-12-30T04:45:43.593Z,99156.09
2017-12-30T04:48:16.070Z,99154.55
2017-12-30T04:50:48.550Z,99139.63
2017-12-30T04:53:21.049Z,99144.30
2017-12-30T04:55:53.552Z,99146.43
2017-12-30T04:58:26.031Z,99155.95
2017-12-30T05:00:58.546Z,99143.09
2017-12-30T05:03:31.082Z,99147.52
2017-12-30T05:06:03.567Z,99165.30
2017-12-30T05:08:36.054Z,99170.94
2017-12-30T05:11:08.580Z,99186.50
2017-12-30T05:13:41.090Z,99186.16
2017-12-30T05:16:13.580Z,99195.98
2017-12-30T05:18:46.060Z,99186.74
2017-12-30T05:21:18.554Z,99191.03
2017-12-30T05:23:51.053Z,99185.39
2017-12-30T05:26:23.535Z,99182.63
2017-12-30T05:28:56.018Z,99182.52
2017-12-30T05:31:28.494Z,99183.79
2017-12-30T05:34:00.976Z,99183.51
2017-12-30T05:36:33.470Z,99188.70
2017-12-30T05:39:06.041Z,99195.53
2017-12-30T05:41:38.538Z,99189.36
2017-12-30T05:44:11.748Z,99182.38
2017-12-30T05:46:44.238Z,99176.48
2017-12-30T05:49:16.742Z,99182.02
2017-12-30T05:51:49.247Z,99177.25
2017-12-30T05:54:22.740Z,99179.27
2017-12-30T05:56:55.235Z,99181.75
2017-12-30T05:59:27.750Z,99183.33
2017-12-30T06:02:00.300Z,99169.66
2017-12-30T06:04:32.889Z,99168.01
2017-12-30T06:07:05.450Z,99175.31
2017-12-30T06:09:37.992Z,99167.64
2017-12-30T06:12:10.613Z,99165.69
2017-12-30T06:14:44.190Z,99177.87
2017-12-30T06:17:16.726Z,99173.91
2017-12-30T06:19:49.295Z,99165.00
2017-12-30T06:22:21.837Z,99161.14
2017-12-30T06:24:54.398Z,99157.88
2017-12-30T06:27:26.932Z,99156.06
2017-12-30T06:29:59.474Z,99142.80
2017-12-30T06:32:32.142Z,99137.77
2017-12-30T06:35:04.680Z,99148.31
2017-12-30T06:37:37.217Z,99134.95
2017-12-30T06:40:09.781Z,99125.05
2017-12-30T06:42:42.331Z,99124.92
2017-12-30T06:45:14.875Z,99121.78
2017-12-30T06:47:47.410Z,99133.80
2017-12-30T06:50:19.899Z,99142.44
2017-12-30T06:52:52.379Z,99134.74
2017-12-30T06:55:24.875Z,99134.80
2017-12-30T06:57:57.384Z,99136.69
2017-12-30T07:00:29.872Z,99137.61
2017-12-30T07:03:02.346Z,99129.12
2017-12-30T07:05:34.924Z,99132.84
2017-12-30T07:08:07.414Z,99131.45
2017-12-30T07:10:42.025Z,99138.85
2017-12-30T07:13:14.529Z,99140.17
2017-12-30T07:15:47.025Z,99147.41
2017-12-30T07:18:19.521Z,99155.31
2017-12-30T07:20:52.146Z,99157.43
2017-12-30T07:23:24.632Z,99154.23
2017-12-30T07:25:57.107Z,99158.28
2017-12-30T07:28:29.591Z,99151.50
2017-12-30T07:31:02.083Z,99150.13
2017-12-30T07:33:34.568Z,99152.15
2017-12-30T07:36:07.066Z,99148.61
2017-12-30T07:38:39.561Z,99153.05
2017-12-30T07:41:12.425Z,99142.37
2017-12-30T07:43:44.970Z,99145.13
2017-12-30T07:46:17.455Z,99159.66
2017-12-30T07:48:49.949Z,99161.05
2017-12-30T07:51:22.441Z,99154.09
2017-12-30T07:53:55.020Z,99151.30
2017-12-30T07:56:27.529Z,99139.95
2017-12-30T07:59:00.015Z,99142.16
2017-12-30T08:01:32.503Z,99141.17
2017-12-30T08:04:05.009Z,99133.31
2017-12-30T08:06:38.516Z,99122.83
2017-12-30T08:09:12.658Z,99118.41
2017-12-30T08:11:45.135Z,99112.13
2017-12-30T08:14:17.619Z,99103.08
2017-12-30T08:16:50.093Z,99103.77
2017-12-30T08:19:22.667Z,99103.19
2017-12-30T08:21:55.272Z,99100.96
2017-12-30T08:24:27.758Z,99092.46
2017-12-30T08:27:00.244Z,99099.71
2017-12-30T08:29:32.723Z,99092.69
2017-12-30T08:32:05.382Z,99088.66
2017-12-30T08:34:37.951Z,99085.46
2017-12-30T08:37:10.477Z,99083.37
2017-12-30T08:39:43.952Z,99089.77
2017-12-30T08:42:16.436Z,99096.46
2017-12-30T08:44:49.003Z,99091.55
2017-12-30T08:47:21.518Z,99092.49
2017-12-30T08:49:54.014Z,99091.77
2017-12-30T08:52:26.503Z,99091.12
2017-12-30T08:54:59.016Z,99080.27
2017-12-30T08:57:31.587Z,99063.16
2017-12-30T09:00:04.090Z,99065.16
2017-12-30T09:02:36.641Z,99066.77
2017-12-30T09:05:09.119Z,99044.36
2017-12-30T09:07:42.186Z,99046.84
2017-12-30T09:10:14.802Z,99046.66
2017-12-30T09:12:47.305Z,99045.80
2017-12-30T09:15:19.790Z,99030.46
2017-12-30T09:17:52.264Z,99038.28
2017-12-30T09:20:24.748Z,99028.72
2017-12-30T09:22:57.241Z,99029.16
2017-12-30T09:25:29.724Z,99027.63
2017-12-30T09:28:02.216Z,99021.49
2017-12-30T09:30:34.733Z,99031.67
2017-12-30T09:33:07.219Z,99032.91
2017-12-30T09:35:39.699Z,99037.27
2017-12-30T09:38:12.185Z,99029.13
2017-12-30T09:40:44.704Z,99028.22
2017-12-30T09:43:17.185Z,99026.08
2017-12-30T09:45:49.666Z,99017.59
2017-12-30T09:48:22.152Z,99003.17
2017-12-30T09:50:54.648Z,98998.77
2017-12-30T09:53:27.141Z,98986.86
2017-12-30T09:55:59.630Z,98986.81
2017-12-30T09:58:33.122Z,98972.27
2017-12-30T10:01:05.617Z,98968.23
2017-12-30T10:03:38.098Z,98964.17
2017-12-30T10:06:10.585Z,98964.65
2017-12-30T10:08:43.796Z,98952.93
2017-12-30T10:11:16.300Z,98949.68
2017-12-30T10:13:48.796Z,98949.97
2017-12-30T10:16:21.291Z,98935.77
2017-12-30T10:18:53.770Z,98932.25
2017-12-30T10:21:26.255Z,98936.98
2017-12-30T10:23:58.739Z,98921.45
2017-12-30T10:26:31.246Z,98922.00
2017-12-30T10:29:03.716Z,98908.67
2017-12-30T10:31:36.187Z,98924.13
2017-12-30T10:34:08.686Z,98918.91
2017-12-30T10:36:41.297Z,98918.19
2017-12-30T10:39:13.799Z,98909.15
2017-12-30T10:41:46.281Z,98903.34
2017-12-30T10:44:18.789Z,98907.84
2017-12-30T10:46:51.282Z,98907.55
2017-12-30T10:49:23.766Z,98896.16
2017-12-30T10:51:56.257Z,98900.36
2017-12-30T10:54:28.792Z,98885.35
2017-12-30T10:57:01.269Z,98880.06
2017-12-30T10:59:33.757Z,98873.28
2017-12-30T11:02:06.249Z,98868.22
2017-12-30T11:04:38.747Z,98862.94
2017-12-30T11:07:11.268Z,98849.80
2017-12-30T11:09:43.756Z,98832.23
2017-12-30T11:12:16.267Z,98814.77
2017-12-30T11:14:48.776Z,98813.63
2017-12-30T11:17:21.262Z,98820.91
2017-12-30T11:19:53.753Z,98804.69
2017-12-30T11:22:26.258Z,98797.08
2017-12-30T11:24:58.740Z,98786.39
2017-12-30T11:27:31.217Z,98770.95
2017-12-30T11:30:03.748Z,98758.12
2017-12-30T11:32:36.240Z,98763.38
2017-12-30T11:35:08.734Z,98747.97
2017-12-30T11:37:41.744Z,98735.52
2017-12-30T11:40:14.606Z,98723.48
2017-12-30T11:42:47.090Z,98709.76
2017-12-30T11:45:19.639Z,98706.05
2017-12-30T11:47:52.119Z,98702.69
2017-12-30T11:50:24.604Z,98696.91
2017-12-30T11:52:57.095Z,98698.25
2017-12-30T11:55:29.634Z,98682.79
2017-12-30T11:58:02.144Z,98676.52
2017-12-30T12:00:34.666Z,98675.22
2017-12-30T12:03:07.263Z,98675.59
2017-12-30T12:05:42.163Z,98674.39
2017-12-30T12:08:14.650Z,98666.75
2017-12-30T12:10:47.155Z,98666.19
2017-12-30T12:13:19.634Z,98659.89
2017-12-30T12:15:52.117Z,98649.47
2017-12-30T12:18:24.694Z,98641.63
2017-12-30T12:20:57.228Z,98642.14
2017-12-30T12:23:31.746Z,98638.02
2017-12-30T12:26:04.273Z,98626.41
2017-12-30T12:28:36.847Z,98632.98
2017-12-30T12:31:09.358Z,98630.89
2017-12-30T12:33:42.944Z,98617.16
2017-12-30T12:36:15.552Z,98613.96
2017-12-30T12:38:48.035Z,98604.23
2017-12-30T12:41:22.547Z,98606.05
2017-12-30T12:43:55.115Z,98593.44
2017-12-30T12:46:27.620Z,98583.91
2017-12-30T12:49:00.131Z,98587.89
2017-12-30T12:51:32.608Z,98584.84
2017-12-30T12:54:05.102Z,98576.21
2017-12-30T12:56:37.576Z,98579.75
2017-12-30T12:59:10.061Z,98564.62
2017-12-30T13:01:46.126Z,98545.49
2017-12-30T13:04:18.603Z,98541.67
2017-12-30T13:06:51.075Z,98538.59
2017-12-30T13:09:23.553Z,98552.70
2017-12-30T13:11:56.032Z,98561.16
2017-12-30T13:14:28.522Z,98552.15
2017-12-30T13:17:01.021Z,98530.31
2017-12-30T13:19:33.496Z,98535.84
2017-12-30T13:22:05.979Z,98529.70
2017-12-30T13:24:38.465Z,98518.19
2017-12-30T13:27:10.967Z,98488.03
2017-12-30T13:29:44.096Z,98489.19
2017-12-30T13:32:16.571Z,98531.58
2017-12-30T13:34:49.048Z,98547.33
2017-12-30T13:37:21.525Z,98511.53
2017-12-30T13:39:54.022Z,98514.97
2017-12-30T13:42:26.516Z,98508.92
2017-12-30T13:44:59.005Z,98506.23
2017-12-30T13:47:31.499Z,98497.11
2017-12-30T13:50:04.031Z,98506.37
2017-12-30T13:52:37.485Z,98499.70
2017-12-30T13:55:09.981Z,98502.72
2017-12-30T13:57:42.481Z,98500.67
2017-12-30T14:00:15.371Z,98493.36
2017-12-30T14:02:47.935Z,98505.19
2017-12-30T14:05:20.410Z,98510.27
2017-12-30T14:07:53.810Z,98498.17
2017-12-30T14:10:26.354Z,98502.46
2017-12-30T14:12:58.884Z,98502.51
2017-12-30T14:15:31.602Z,98484.34
2017-12-30T14:18:04.085Z,98481.38
2017-12-30T14:20:56.646Z,98474.27
2017-12-30T14:23:29.129Z,98472.38
2017-12-30T14:26:01.623Z,98478.28
2017-12-30T14:28:34.115Z,98491.92
2017-12-30T14:31:06.636Z,98479.99
2017-12-30T14:33:39.114Z,98469.89
2017-12-30T14:36:12.213Z,98473.72
2017-12-30T14:38:44.701Z,98466.95
2017-12-30T14:41:17.193Z,98461.63
2017-12-30T14:43:49.685Z,98447.99
2017-12-30T14:46:22.172Z,98448.96
2017-12-30T14:48:54.690Z,98445.92
2017-12-30T14:51:27.166Z,98435.36
2017-12-30T14:53:59.692Z,98442.48
2017-12-30T14:56:32.175Z,98444.41
2017-12-30T14:59:04.666Z,98444.61
2017-12-30T15:01:37.146Z,98447.84
2017-12-30T15:04:09.654Z,98441.93
2017-12-30T15:06:42.167Z,98450.89
2017-12-30T15:09:14.664Z,98457.12
2017-12-30T15:11:47.164Z,98452.75
2017-12-30T15:14:19.655Z,98447.75
2017-12-30T15:16:52.141Z,98453.91
2017-12-30T15:19:24.633Z,98446.00
2017-12-30T15:21:57.121Z,98447.59
2017-12-30T15:24:29.601Z,98451.78
2017-12-30T15:27:02.088Z,98445.81
2017-12-30T15:29:34.690Z,98446.73
2017-12-30T15:32:07.191Z,98443.96
2017-12-30T15:34:39.686Z,98435.59
2017-12-30T15:37:12.781Z,98416.72
2017-12-30T15:39:45.303Z,98418.69
2017-12-30T15:42:17.801Z,98424.88
2017-12-30T15:44:50.347Z,98422.36
2017-12-30T15:47:22.854Z,98423.86
2017-12-30T15:49:55.350Z,98434.99
2017-12-30T15:52:27.846Z,98433.81
2017-12-30T15:55:00.337Z,98444.84
2017-12-30T15:57:32.852Z,98457.87
2017-12-30T16:00:05.360Z,98462.03
2017-12-30T16:02:37.871Z,98437.45
2017-12-30T16:05:10.383Z,98450.84
2017-12-30T16:07:43.960Z,98454.78
2017-12-30T16:10:16.466Z,98443.67
2017-12-30T16:12:48.979Z,98454.61
2017-12-30T16:15:21.468Z,98443.44
2017-12-30T16:17:53.965Z,98464.92
2017-12-30T16:20:26.444Z,98456.94
2017-12-30T16:22:58.956Z,98449.11
2017-12-30T16:25:31.474Z,98453.23
2017-12-30T16:28:03.962Z,98453.27
2017-12-30T16:30:36.459Z,98458.06
2017-12-30T16:33:08.971Z,98463.50
2017-12-30T16:35:41.466Z,98462.02
2017-12-30T16:38:14.509Z,98470.25
2017-12-30T16:40:47.007Z,98464.62
2017-12-30T16:43:19.531Z,98466.03
2017-12-30T16:45:52.042Z,98477.11
2017-12-30T16:48:24.554Z,98476.86
2017-12-30T16:50:57.051Z,98467.92
2017-12-30T16:53:29.555Z,98486.59
2017-12-30T16:56:02.050Z,98495.52
2017-12-30T16:58:34.543Z,98507.27
2017-12-30T17:01:07.046Z,98514.60
2017-12-30T17:03:39.535Z,98514.16
2017-12-30T17:06:13.651Z,98508.63
2017-12-30T17:08:46.152Z,98511.36
2017-12-30T17:11:20.878Z,98504.95
2017-12-30T17:13:53.373Z,98511.42
2017-12-30T17:16:25.853Z,98507.80
2017-12-30T17:18:58.348Z,98503.75
2017-12-30T17:21:30.868Z,98543.05
2017-12-30T17:24:03.417Z,98554.78
2017-12-30T17:26:35.987Z,98551.34
2017-12-30T17:29:08.495Z,98541.70
2017-12-30T17:31:40.995Z,98542.20
2017-12-30T17:34:14.128Z,98550.13
2017-12-30T17:36:46.629Z,98562.11
2017-12-30T17:39:19.138Z,98549.14
2017-12-30T17:41:51.618Z,98560.80
2017-12-30T17:44:24.131Z,98568.70
2017-12-30T17:46:56.627Z,98566.39
2017-12-30T17:49:29.128Z,98566.39
2017-12-30T17:52:01.664Z,98572.88
2017-12-30T17:54:34.180Z,98563.95
2017-12-30T17:57:06.678Z,98568.73
2017-12-30T17:59:39.184Z,98569.78
2017-12-30T18:02:11.709Z,98575.69
2017-12-30T18:04:44.528Z,98577.72
2017-12-30T18:07:17.027Z,98596.05
2017-12-30T18:09:49.518Z,98593.76
2017-12-30T18:12:22.140Z,98602.16
2017-12-30T18:14:54.702Z,98584.72
2017-12-30T18:17:27.200Z,98601.81
2017-12-30T18:19:59.699Z,98587.53
2017-12-30T18:22:32.193Z,98606.33
2017-12-30T18:25:04.685Z,98611.30
2017-12-30T18:27:37.174Z,98611.15
2017-12-30T18:30:09.671Z,98613.34
2017-12-30T18:32:42.771Z,98618.81
2017-12-30T18:35:15.274Z,98626.78
2017-12-30T18:37:47.989Z,98614.00
2017-12-30T18:40:20.479Z,98609.91
2017-12-30T18:42:53.011Z,98609.70
2017-12-30T18:45:25.495Z,98620.27
2017-12-30T18:47:57.976Z,98623.58
2017-12-30T18:50:30.460Z,98624.88
2017-12-30T18:53:03.000Z,98623.25
2017-12-30T18:55:35.491Z,98630.77
2017-12-30T18:58:07.987Z,98643.80
2017-12-30T19:00:40.465Z,98629.60
2017-12-30T19:03:14.059Z,98645.61
2017-12-30T19:05:46.557Z,98639.89
2017-12-30T19:08:19.086Z,98648.50
2017-12-30T19:10:51.711Z,98647.34
2017-12-30T19:13:24.218Z,98657.45
2017-12-30T19:15:56.714Z,98642.27
2017-12-30T19:18:29.240Z,98654.30
2017-12-30T19:21:01.742Z,98668.99
2017-12-30T19:23:34.218Z,98667.78
2017-12-30T19:26:06.708Z,98658.13
2017-12-30T19:28:39.186Z,98681.16
2017-12-30T19:31:11.659Z,98703.86
2017-12-30T19:33:45.025Z,98731.09
2017-12-30T19:36:17.520Z,98701.73
2017-12-30T19:38:50.002Z,98704.94
2017-12-30T19:41:22.499Z,98703.13
2017-12-30T19:43:54.990Z,98712.73
2017-12-30T19:46:27.492Z,98732.71
2017-12-30T19:49:00.015Z,98731.38
2017-12-30T19:51:32.514Z,98737.67
2017-12-30T19:54:05.004Z,98739.31
2017-12-30T19:56:37.506Z,98749.94
2017-12-30T19:59:09.999Z,98739.39
2017-12-30T20:01:43.144Z,98735.58
2017-12-30T20:04:15.639Z,98736.46
2017-12-30T20:06:48.124Z,98742.79
2017-12-30T20:09:20.683Z,98736.80
2017-12-30T20:11:53.188Z,98746.88
2017-12-30T20:14:25.680Z,98748.89
2017-12-30T20:16:58.191Z,98758.83
2017-12-30T20:19:30.712Z,98773.86
2017-12-30T20:22:03.209Z,98763.50
2017-12-30T20:24:35.721Z,98775.75
2017-12-30T20:27:08.209Z,98774.36
2017-12-30T20:29:40.698Z,98791.41
2017-12-30T20:32:13.524Z,98788.45
2017-12-30T20:34:46.024Z,98803.17
2017-12-30T20:37:18.506Z,98785.55
2017-12-30T20:39:51.028Z,98785.05
2017-12-30T20:42:23.522Z,98793.79
2017-12-30T20:44:56.023Z,98811.59
2017-12-30T20:47:28.519Z,98799.31
2017-12-30T20:50:01.018Z,98817.58
2017-12-30T20:52:33.508Z,98806.73
2017-12-30T20:55:06.015Z,98833.56
2017-12-30T20:57:38.513Z,98824.44
2017-12-30T21:00:11.000Z,98834.73
2017-12-30T21:05:33.089Z,98853.44
2017-12-30T21:08:05.595Z,98853.46
2017-12-30T21:10:38.105Z,98853.58
2017-12-30T21:13:10.586Z,98857.94
2017-12-30T21:15:43.452Z,98866.21
2017-12-30T21:18:15.991Z,98872.87
2017-12-30T21:20:48.483Z,98885.09
2017-12-30T21:23:20.968Z,98880.19
2017-12-30T21:25:53.479Z,98887.50
2017-12-30T21:28:25.957Z,98897.06
2017-12-30T21:30:58.443Z,98914.17
2017-12-30T21:33:30.919Z,98922.55
2017-12-30T21:36:03.405Z,98918.73
2017-12-30T21:38:35.890Z,98931.82
2017-12-30T21:41:08.384Z,98956.98
2017-12-30T21:43:40.868Z,98959.33
2017-12-30T21:46:13.355Z,98961.63
2017-12-30T21:48:45.913Z,98965.42
2017-12-30T21:51:18.410Z,98990.30
2017-12-30T21:53:50.956Z,98976.73
2017-12-30T21:56:23.621Z,98987.92
2017-12-30T21:58:56.207Z,99011.31
2017-12-30T22:01:28.708Z,99016.33
2017-12-30T22:04:01.202Z,99026.23
2017-12-30T22:06:33.696Z,99041.75
2017-12-30T22:09:06.202Z,99039.75
2017-12-30T22:11:38.717Z,99051.77
2017-12-30T22:14:11.250Z,99062.67
2017-12-30T22:16:44.554Z,99052.23
2017-12-30T22:19:17.051Z,99066.91
2017-12-30T22:21:49.613Z,99077.95
2017-12-30T22:24:22.339Z,99083.20
2017-12-30T22:26:54.932Z,99077.95
2017-12-30T22:29:27.420Z,99087.93
2017-12-30T22:31:59.919Z,99093.15
2017-12-30T22:34:32.715Z,99095.14
2017-12-30T22:37:05.493Z,99106.20
2017-12-30T22:39:38.042Z,99119.78
2017-12-30T22:42:10.516Z,99132.81
2017-12-30T22:44:43.504Z,99130.28
2017-12-30T22:47:16.007Z,99139.24
2017-12-30T22:49:48.493Z,99154.77
2017-12-30T22:52:20.989Z,99150.44
2017-12-30T22:54:53.527Z,99167.28
2017-12-30T22:57:26.206Z,99152.85
2017-12-30T22:59:58.742Z,99171.17
2017-12-30T23:02:31.243Z,99175.64
2017-12-30T23:05:04.063Z,99185.73
2017-12-30T23:07:36.636Z,99198.38
2017-12-30T23:10:09.131Z,99202.97
2017-12-30T23:12:41.642Z,99195.75
2017-12-30T23:15:15.022Z,99192.25
2017-12-30T23:17:47.501Z,99198.52
2017-12-30T23:20:19.994Z,99196.89
2017-12-30T23:22:52.844Z,99195.30
2017-12-30T23:25:25.327Z,99202.85
2017-12-30T23:27:57.822Z,99208.13
2017-12-30T23:30:30.315Z,99221.84
2017-12-30T23:33:02.793Z,99226.78
2017-12-30T23:35:35.288Z,99231.34
2017-12-30T23:38:23.182Z,99229.95
2017-12-30T23:40:58.163Z,99246.34
2017-12-30T23:43:31.471Z,99251.12
2017-12-30T23:46:03.959Z,99252.20
2017-12-30T23:48:36.480Z,99256.88
2017-12-30T23:51:08.979Z,99265.30
2017-12-30T23:53:41.791Z,99270.75
2017-12-30T23:56:14.851Z,99270.63
2017-12-30T23:58:47.343Z,99256.74
